首页
METAR-TAF:

METAR-TAF

机场 :

扎達爾, 克罗地亚

纬度: 44-06N, 经度: 015-21E, 海拔: 82米

当前天气观测

该预报发布于29分钟前的11:00 UTC
风速4节,风向东转东北,在东转东南之间变化
温度 10°C
湿度 100%
气压 1021 hPa
能见度10公里或以上
少量云层高于2500英尺
散云层高于4000英尺

METAR: LDZD 261100Z 07004KT 010V120 9999 FEW025 SCT040 10/10 Q1021 NOSIG

时间: 12:29 (11:29 UTC)

预报

该预报发布于5小时和3分钟前的06:26 UTC
预报有效从26日的 06点(UTC)到 27日的 06点(UTC)
风速6节,风向
能见度10公里或以上
少量云层高于1500英尺
多云层高于4000英尺
短暂存在
从 26日的 06点(UTC)到 27日的 00点(UTC)
能見度: 4000
几率 40% :
短暂存在
从 26日的 06点(UTC)到 26日的 10点(UTC)
风速14节,风向南转南东
几率 30% :
短暂存在
从 26日的 07点(UTC)到 26日的 16点(UTC)
少量云层高于1500英尺, 积雨云.
多云层高于3000英尺
雷暴, 雨
成为
从 26日的 18点(UTC)到 26日的 20点(UTC)
风速7节,风向北转西北

TAF: LDZD 260626Z 2606/2706 09006KT 9999 FEW015 BKN040 TX11/2613Z TN04/2705Z TEMPO 2606/2700 4000 RA PROB40 TEMPO 2606/2610 16014KT PROB30 TEMPO 2607/2616 TSRA FEW015CB BKN030 BECMG 2618/2620 34007KT

超过4000个机场的气象观测和天气预报(METAR&TAF报告)。

可查询的气象台以黄色和红色小点在地图上表示。

将鼠标移到小点上方,可查看气象台名称。

然后点击查看天气观测和预报。

如需切换地图:点击带黑十字的绿色按钮放大地图;点击带横线的绿色按钮缩小地图;或者点击绿色箭头查看邻近地区的地图。


METAR-TAF: